sensor_id;sensor_type;location;lat;lon;timestamp;temperature;humidity
23100;DHT22;53791;50.696;4.396;2022-11-20T00:01:28;5.00;99.90
23100;DHT22;53791;50.696;4.396;2022-11-20T00:03:57;5.00;99.90
23100;DHT22;53791;50.696;4.396;2022-11-20T00:06:26;5.00;99.90
23100;DHT22;53791;50.696;4.396;2022-11-20T00:08:55;5.00;99.90
23100;DHT22;53791;50.696;4.396;2022-11-20T00:11:24;4.90;99.90
23100;DHT22;53791;50.696;4.396;2022-11-20T00:13:55;5.00;99.90
23100;DHT22;53791;50.696;4.396;2022-11-20T00:16:25;5.10;99.90
23100;DHT22;53791;50.696;4.396;2022-11-20T00:18:54;5.10;99.90
23100;DHT22;53791;50.696;4.396;2022-11-20T00:21:23;5.10;99.90
23100;DHT22;53791;50.696;4.396;2022-11-20T00:23:53;5.10;99.90
23100;DHT22;53791;50.696;4.396;2022-11-20T00:26:22;5.20;99.90
23100;DHT22;53791;50.696;4.396;2022-11-20T00:28:57;5.10;99.90
23100;DHT22;53791;50.696;4.396;2022-11-20T00:31:27;5.10;99.90
23100;DHT22;53791;50.696;4.396;2022-11-20T00:33:55;5.10;99.90
23100;DHT22;53791;50.696;4.396;2022-11-20T00:36:25;5.10;99.90
23100;DHT22;53791;50.696;4.396;2022-11-20T00:38:57;5.10;99.90
23100;DHT22;53791;50.696;4.396;2022-11-20T00:41:25;5.10;99.90
23100;DHT22;53791;50.696;4.396;2022-11-20T00:43:54;5.10;99.90
23100;DHT22;53791;50.696;4.396;2022-11-20T00:46:24;5.10;99.90
23100;DHT22;53791;50.696;4.396;2022-11-20T00:48:52;5.10;99.90
23100;DHT22;53791;50.696;4.396;2022-11-20T00:51:23;5.10;99.90
23100;DHT22;53791;50.696;4.396;2022-11-20T00:53:50;5.00;99.90
23100;DHT22;53791;50.696;4.396;2022-11-20T00:56:19;5.10;99.90
23100;DHT22;53791;50.696;4.396;2022-11-20T00:58:48;5.10;99.90
23100;DHT22;53791;50.696;4.396;2022-11-20T01:01:23;5.10;99.90
23100;DHT22;53791;50.696;4.396;2022-11-20T01:03:54;5.10;99.90
23100;DHT22;53791;50.696;4.396;2022-11-20T01:06:27;5.10;99.90
23100;DHT22;53791;50.696;4.396;2022-11-20T01:08:54;5.10;99.90
23100;DHT22;53791;50.696;4.396;2022-11-20T01:11:24;5.10;99.90
23100;DHT22;53791;50.696;4.396;2022-11-20T01:13:53;5.00;99.90
23100;DHT22;53791;50.696;4.396;2022-11-20T01:16:30;5.10;99.90
23100;DHT22;53791;50.696;4.396;2022-11-20T01:19:00;5.00;99.90
23100;DHT22;53791;50.696;4.396;2022-11-20T01:21:33;5.10;99.90
23100;DHT22;53791;50.696;4.396;2022-11-20T01:24:02;5.20;99.90
23100;DHT22;53791;50.696;4.396;2022-11-20T01:26:32;5.10;99.90
23100;DHT22;53791;50.696;4.396;2022-11-20T01:29:00;5.10;99.90
23100;DHT22;53791;50.696;4.396;2022-11-20T01:31:34;5.10;99.90
23100;DHT22;53791;50.696;4.396;2022-11-20T01:34:04;5.10;99.90
23100;DHT22;53791;50.696;4.396;2022-11-20T01:36:33;5.10;99.90
23100;DHT22;53791;50.696;4.396;2022-11-20T01:39:04;5.00;99.90
23100;DHT22;53791;50.696;4.396;2022-11-20T01:41:33;5.10;99.90
23100;DHT22;53791;50.696;4.396;2022-11-20T01:44:21;5.10;99.90
23100;DHT22;53791;50.696;4.396;2022-11-20T01:47:03;5.10;99.90
23100;DHT22;53791;50.696;4.396;2022-11-20T01:49:37;5.20;99.90
23100;DHT22;53791;50.696;4.396;2022-11-20T01:52:10;5.20;99.90
23100;DHT22;53791;50.696;4.396;2022-11-20T01:54:42;5.10;99.90
23100;DHT22;53791;50.696;4.396;2022-11-20T01:57:11;5.10;99.90
23100;DHT22;53791;50.696;4.396;2022-11-20T01:59:43;5.00;99.90
23100;DHT22;53791;50.696;4.396;2022-11-20T02:02:10;5.00;99.90
23100;DHT22;53791;50.696;4.396;2022-11-20T02:04:38;5.10;99.90
23100;DHT22;53791;50.696;4.396;2022-11-20T02:07:05;5.00;99.90
23100;DHT22;53791;50.696;4.396;2022-11-20T02:09:33;5.00;99.90
23100;DHT22;53791;50.696;4.396;2022-11-20T02:12:01;5.00;99.90
23100;DHT22;53791;50.696;4.396;2022-11-20T02:14:29;5.00;99.90
23100;DHT22;53791;50.696;4.396;2022-11-20T02:16:56;4.80;99.90
23100;DHT22;53791;50.696;4.396;2022-11-20T02:19:27;4.70;99.90
23100;DHT22;53791;50.696;4.396;2022-11-20T02:22:05;4.60;99.90
23100;DHT22;53791;50.696;4.396;2022-11-20T02:24:31;4.50;99.90
23100;DHT22;53791;50.696;4.396;2022-11-20T02:27:10;4.60;99.90
23100;DHT22;53791;50.696;4.396;2022-11-20T02:29:51;4.60;99.90
23100;DHT22;53791;50.696;4.396;2022-11-20T02:32:24;4.60;99.90
23100;DHT22;53791;50.696;4.396;2022-11-20T02:34:52;4.60;99.90
23100;DHT22;53791;50.696;4.396;2022-11-20T02:37:21;4.50;99.90
23100;DHT22;53791;50.696;4.396;2022-11-20T02:39:50;4.50;99.90
23100;DHT22;53791;50.696;4.396;2022-11-20T02:42:18;4.50;99.90
23100;DHT22;53791;50.696;4.396;2022-11-20T02:44:46;4.50;99.90
23100;DHT22;53791;50.696;4.396;2022-11-20T02:47:13;4.50;99.90
23100;DHT22;53791;50.696;4.396;2022-11-20T02:49:41;4.40;99.90
23100;DHT22;53791;50.696;4.396;2022-11-20T02:52:08;4.40;99.90
23100;DHT22;53791;50.696;4.396;2022-11-20T02:54:36;4.40;99.90
23100;DHT22;53791;50.696;4.396;2022-11-20T02:57:03;4.50;99.90
23100;DHT22;53791;50.696;4.396;2022-11-20T02:59:31;4.50;99.90
23100;DHT22;53791;50.696;4.396;2022-11-20T03:01:58;4.50;99.90
23100;DHT22;53791;50.696;4.396;2022-11-20T03:04:26;4.50;99.90
23100;DHT22;53791;50.696;4.396;2022-11-20T03:06:53;4.50;99.90
23100;DHT22;53791;50.696;4.396;2022-11-20T03:09:21;4.50;99.90
23100;DHT22;53791;50.696;4.396;2022-11-20T03:11:48;4.60;99.90
23100;DHT22;53791;50.696;4.396;2022-11-20T03:14:16;4.60;99.90
23100;DHT22;53791;50.696;4.396;2022-11-20T03:16:43;4.60;99.90
23100;DHT22;53791;50.696;4.396;2022-11-20T03:19:12;4.50;99.90
23100;DHT22;53791;50.696;4.396;2022-11-20T03:21:40;4.50;99.90
23100;DHT22;53791;50.696;4.396;2022-11-20T03:24:07;4.50;99.90
23100;DHT22;53791;50.696;4.396;2022-11-20T03:26:35;4.50;99.90
23100;DHT22;53791;50.696;4.396;2022-11-20T03:29:04;4.50;99.90
23100;DHT22;53791;50.696;4.396;2022-11-20T03:31:37;4.50;99.90
23100;DHT22;53791;50.696;4.396;2022-11-20T03:34:08;4.50;99.90
23100;DHT22;53791;50.696;4.396;2022-11-20T03:36:38;4.50;99.90
23100;DHT22;53791;50.696;4.396;2022-11-20T03:39:06;4.50;99.90
23100;DHT22;53791;50.696;4.396;2022-11-20T03:41:36;4.40;99.90
23100;DHT22;53791;50.696;4.396;2022-11-20T03:44:06;4.40;99.90
23100;DHT22;53791;50.696;4.396;2022-11-20T03:46:33;4.30;99.90
23100;DHT22;53791;50.696;4.396;2022-11-20T03:49:01;4.40;99.90
23100;DHT22;53791;50.696;4.396;2022-11-20T03:51:30;4.40;99.90
23100;DHT22;53791;50.696;4.396;2022-11-20T03:54:00;4.50;99.90
23100;DHT22;53791;50.696;4.396;2022-11-20T03:56:30;4.50;99.90
23100;DHT22;53791;50.696;4.396;2022-11-20T03:58:58;4.50;99.90
23100;DHT22;53791;50.696;4.396;2022-11-20T04:01:34;4.60;99.90
23100;DHT22;53791;50.696;4.396;2022-11-20T04:04:03;4.60;99.90
23100;DHT22;53791;50.696;4.396;2022-11-20T04:06:36;4.40;99.90
23100;DHT22;53791;50.696;4.396;2022-11-20T04:09:04;4.50;99.90
23100;DHT22;53791;50.696;4.396;2022-11-20T04:11:34;4.40;99.90
23100;DHT22;53791;50.696;4.396;2022-11-20T04:14:04;4.30;99.90
23100;DHT22;53791;50.696;4.396;2022-11-20T04:16:34;4.40;99.90
23100;DHT22;53791;50.696;4.396;2022-11-20T04:19:04;4.40;99.90
23100;DHT22;53791;50.696;4.396;2022-11-20T04:21:32;4.40;99.90
23100;DHT22;53791;50.696;4.396;2022-11-20T04:24:00;4.60;99.90
23100;DHT22;53791;50.696;4.396;2022-11-20T04:26:29;4.50;99.90
23100;DHT22;53791;50.696;4.396;2022-11-20T04:28:57;4.60;99.90
23100;DHT22;53791;50.696;4.396;2022-11-20T04:31:31;4.60;99.90
23100;DHT22;53791;50.696;4.396;2022-11-20T04:34:03;4.60;99.90
23100;DHT22;53791;50.696;4.396;2022-11-20T04:36:32;4.60;99.90
23100;DHT22;53791;50.696;4.396;2022-11-20T04:39:02;4.60;99.90
23100;DHT22;53791;50.696;4.396;2022-11-20T04:41:32;4.70;99.90
23100;DHT22;53791;50.696;4.396;2022-11-20T04:44:01;4.80;99.90
23100;DHT22;53791;50.696;4.396;2022-11-20T04:46:32;4.90;99.90
23100;DHT22;53791;50.696;4.396;2022-11-20T04:49:00;4.90;99.90
23100;DHT22;53791;50.696;4.396;2022-11-20T04:51:27;5.00;99.90
23100;DHT22;53791;50.696;4.396;2022-11-20T04:53:55;5.00;99.90
23100;DHT22;53791;50.696;4.396;2022-11-20T04:56:23;5.00;99.90
23100;DHT22;53791;50.696;4.396;2022-11-20T04:58:51;5.10;99.90
23100;DHT22;53791;50.696;4.396;2022-11-20T05:01:21;5.10;99.90
23100;DHT22;53791;50.696;4.396;2022-11-20T05:03:50;5.10;99.90
23100;DHT22;53791;50.696;4.396;2022-11-20T05:06:19;5.20;99.90
23100;DHT22;53791;50.696;4.396;2022-11-20T05:08:47;5.30;99.90
23100;DHT22;53791;50.696;4.396;2022-11-20T05:11:18;5.30;99.90
23100;DHT22;53791;50.696;4.396;2022-11-20T05:13:46;5.30;99.90
23100;DHT22;53791;50.696;4.396;2022-11-20T05:16:18;5.30;99.90
23100;DHT22;53791;50.696;4.396;2022-11-20T05:18:46;5.30;99.90
23100;DHT22;53791;50.696;4.396;2022-11-20T05:21:15;5.40;99.90
23100;DHT22;53791;50.696;4.396;2022-11-20T05:23:43;5.40;99.90
23100;DHT22;53791;50.696;4.396;2022-11-20T05:26:20;5.40;99.90
23100;DHT22;53791;50.696;4.396;2022-11-20T05:28:44;5.50;99.90
23100;DHT22;53791;50.696;4.396;2022-11-20T05:31:14;5.50;99.90
23100;DHT22;53791;50.696;4.396;2022-11-20T05:33:43;5.60;99.90
23100;DHT22;53791;50.696;4.396;2022-11-20T05:36:13;5.50;99.90
23100;DHT22;53791;50.696;4.396;2022-11-20T05:38:42;5.60;99.90
23100;DHT22;53791;50.696;4.396;2022-11-20T05:41:12;5.60;99.90
23100;DHT22;53791;50.696;4.396;2022-11-20T05:43:41;5.60;99.90
23100;DHT22;53791;50.696;4.396;2022-11-20T05:46:11;5.60;99.90
23100;DHT22;53791;50.696;4.396;2022-11-20T05:48:40;5.60;99.90
23100;DHT22;53791;50.696;4.396;2022-11-20T05:51:09;5.70;99.90
23100;DHT22;53791;50.696;4.396;2022-11-20T05:53:37;5.60;99.90
23100;DHT22;53791;50.696;4.396;2022-11-20T05:56:13;5.60;99.90
23100;DHT22;53791;50.696;4.396;2022-11-20T05:58:41;5.60;99.90
23100;DHT22;53791;50.696;4.396;2022-11-20T06:01:11;5.60;99.90
23100;DHT22;53791;50.696;4.396;2022-11-20T06:03:41;5.60;99.90
23100;DHT22;53791;50.696;4.396;2022-11-20T06:06:11;5.70;99.90
23100;DHT22;53791;50.696;4.396;2022-11-20T06:08:38;5.60;99.90
23100;DHT22;53791;50.696;4.396;2022-11-20T06:11:08;5.60;99.90
23100;DHT22;53791;50.696;4.396;2022-11-20T06:13:36;5.60;99.90
23100;DHT22;53791;50.696;4.396;2022-11-20T06:16:03;5.50;99.90
23100;DHT22;53791;50.696;4.396;2022-11-20T06:18:32;5.40;99.90
23100;DHT22;53791;50.696;4.396;2022-11-20T06:21:07;5.40;99.90
23100;DHT22;53791;50.696;4.396;2022-11-20T06:23:36;5.30;99.90
23100;DHT22;53791;50.696;4.396;2022-11-20T06:26:09;5.30;99.90
23100;DHT22;53791;50.696;4.396;2022-11-20T06:28:37;5.30;99.90
23100;DHT22;53791;50.696;4.396;2022-11-20T06:31:05;5.30;99.90
23100;DHT22;53791;50.696;4.396;2022-11-20T06:33:33;5.40;99.90
23100;DHT22;53791;50.696;4.396;2022-11-20T06:36:02;5.50;99.90
23100;DHT22;53791;50.696;4.396;2022-11-20T06:38:30;5.60;99.90
23100;DHT22;53791;50.696;4.396;2022-11-20T06:40:58;5.60;99.90
23100;DHT22;53791;50.696;4.396;2022-11-20T06:43:25;5.60;99.90
23100;DHT22;53791;50.696;4.396;2022-11-20T06:45:54;5.70;99.90
23100;DHT22;53791;50.696;4.396;2022-11-20T06:48:22;5.70;99.90
23100;DHT22;53791;50.696;4.396;2022-11-20T06:50:50;5.70;99.90
23100;DHT22;53791;50.696;4.396;2022-11-20T06:53:18;5.80;99.90
23100;DHT22;53791;50.696;4.396;2022-11-20T06:55:46;5.80;99.90
23100;DHT22;53791;50.696;4.396;2022-11-20T06:58:15;5.80;99.90
23100;DHT22;53791;50.696;4.396;2022-11-20T07:00:43;5.90;99.90
23100;DHT22;53791;50.696;4.396;2022-11-20T07:03:12;5.80;99.90
23100;DHT22;53791;50.696;4.396;2022-11-20T07:05:39;5.80;99.90
23100;DHT22;53791;50.696;4.396;2022-11-20T07:08:07;5.90;99.90
23100;DHT22;53791;50.696;4.396;2022-11-20T07:10:35;5.90;99.90
23100;DHT22;53791;50.696;4.396;2022-11-20T07:13:03;5.90;99.90
23100;DHT22;53791;50.696;4.396;2022-11-20T07:15:31;5.90;99.90
23100;DHT22;53791;50.696;4.396;2022-11-20T07:18:01;5.90;99.90
23100;DHT22;53791;50.696;4.396;2022-11-20T07:20:30;5.90;99.90
23100;DHT22;53791;50.696;4.396;2022-11-20T07:23:00;5.90;99.90
23100;DHT22;53791;50.696;4.396;2022-11-20T07:25:27;6.00;99.90
23100;DHT22;53791;50.696;4.396;2022-11-20T07:27:59;6.00;99.90
23100;DHT22;53791;50.696;4.396;2022-11-20T07:30:27;6.10;99.90
23100;DHT22;53791;50.696;4.396;2022-11-20T07:32:55;6.10;99.90
23100;DHT22;53791;50.696;4.396;2022-11-20T07:35:25;6.10;99.90
23100;DHT22;53791;50.696;4.396;2022-11-20T07:37:54;6.20;99.90
23100;DHT22;53791;50.696;4.396;2022-11-20T07:40:23;6.20;99.90
23100;DHT22;53791;50.696;4.396;2022-11-20T07:42:52;6.30;99.90
23100;DHT22;53791;50.696;4.396;2022-11-20T07:45:21;6.30;99.90
23100;DHT22;53791;50.696;4.396;2022-11-20T07:47:57;6.30;99.90
23100;DHT22;53791;50.696;4.396;2022-11-20T07:50:28;6.40;99.90
23100;DHT22;53791;50.696;4.396;2022-11-20T07:53:05;6.40;99.90
23100;DHT22;53791;50.696;4.396;2022-11-20T07:55:38;6.40;99.90
23100;DHT22;53791;50.696;4.396;2022-11-20T07:58:06;6.30;99.90
23100;DHT22;53791;50.696;4.396;2022-11-20T08:00:34;6.40;99.90
23100;DHT22;53791;50.696;4.396;2022-11-20T08:03:06;6.40;99.90
23100;DHT22;53791;50.696;4.396;2022-11-20T08:05:37;6.40;99.90
23100;DHT22;53791;50.696;4.396;2022-11-20T08:08:09;6.40;99.90
23100;DHT22;53791;50.696;4.396;2022-11-20T08:10:35;6.50;99.90
23100;DHT22;53791;50.696;4.396;2022-11-20T08:13:03;6.60;99.90
23100;DHT22;53791;50.696;4.396;2022-11-20T08:15:50;6.70;99.90
23100;DHT22;53791;50.696;4.396;2022-11-20T08:18:24;6.80;99.90
23100;DHT22;53791;50.696;4.396;2022-11-20T08:21:37;6.90;99.90
23100;DHT22;53791;50.696;4.396;2022-11-20T08:23:30;6.80;99.90
23100;DHT22;53791;50.696;4.396;2022-11-20T08:26:04;6.90;99.90
23100;DHT22;53791;50.696;4.396;2022-11-20T08:28:28;6.80;99.90
23100;DHT22;53791;50.696;4.396;2022-11-20T08:31:06;6.90;99.90
23100;DHT22;53791;50.696;4.396;2022-11-20T08:33:46;6.90;99.90
23100;DHT22;53791;50.696;4.396;2022-11-20T08:36:17;7.10;99.90
23100;DHT22;53791;50.696;4.396;2022-11-20T08:38:56;7.10;99.90
23100;DHT22;53791;50.696;4.396;2022-11-20T08:43:56;7.20;99.90
23100;DHT22;53791;50.696;4.396;2022-11-20T08:46:34;7.30;99.90
23100;DHT22;53791;50.696;4.396;2022-11-20T08:49:00;7.30;99.90
23100;DHT22;53791;50.696;4.396;2022-11-20T08:51:31;7.40;99.90
23100;DHT22;53791;50.696;4.396;2022-11-20T08:54:03;7.50;99.90
23100;DHT22;53791;50.696;4.396;2022-11-20T08:56:31;7.60;99.90
23100;DHT22;53791;50.696;4.396;2022-11-20T08:59:06;7.60;99.90
23100;DHT22;53791;50.696;4.396;2022-11-20T09:01:37;7.70;99.90
23100;DHT22;53791;50.696;4.396;2022-11-20T09:04:05;7.80;99.90
23100;DHT22;53791;50.696;4.396;2022-11-20T09:06:38;7.90;99.90
23100;DHT22;53791;50.696;4.396;2022-11-20T09:09:35;7.90;99.90
23100;DHT22;53791;50.696;4.396;2022-11-20T09:11:49;7.90;99.90
23100;DHT22;53791;50.696;4.396;2022-11-20T09:14:19;8.00;99.90
23100;DHT22;53791;50.696;4.396;2022-11-20T09:16:47;8.10;99.90
23100;DHT22;53791;50.696;4.396;2022-11-20T09:19:23;8.00;99.90
23100;DHT22;53791;50.696;4.396;2022-11-20T09:21:56;8.10;99.90
23100;DHT22;53791;50.696;4.396;2022-11-20T09:24:18;8.20;99.90
23100;DHT22;53791;50.696;4.396;2022-11-20T09:26:47;8.30;99.90
23100;DHT22;53791;50.696;4.396;2022-11-20T09:29:18;8.30;99.90
23100;DHT22;53791;50.696;4.396;2022-11-20T09:31:56;8.30;99.90
23100;DHT22;53791;50.696;4.396;2022-11-20T09:34:26;8.30;99.90
23100;DHT22;53791;50.696;4.396;2022-11-20T09:37:02;8.30;99.90
23100;DHT22;53791;50.696;4.396;2022-11-20T09:39:32;8.40;99.90
23100;DHT22;53791;50.696;4.396;2022-11-20T09:42:05;8.40;99.90
23100;DHT22;53791;50.696;4.396;2022-11-20T09:47:40;8.50;99.90
23100;DHT22;53791;50.696;4.396;2022-11-20T09:53:04;8.30;99.90
23100;DHT22;53791;50.696;4.396;2022-11-20T09:55:38;8.40;99.90
23100;DHT22;53791;50.696;4.396;2022-11-20T09:58:15;8.40;99.90
23100;DHT22;53791;50.696;4.396;2022-11-20T10:00:51;8.40;99.90
23100;DHT22;53791;50.696;4.396;2022-11-20T10:03:45;8.50;99.90
23100;DHT22;53791;50.696;4.396;2022-11-20T10:06:11;8.50;99.90
23100;DHT22;53791;50.696;4.396;2022-11-20T10:08:45;8.60;99.90
23100;DHT22;53791;50.696;4.396;2022-11-20T10:25:14;8.70;99.90
23100;DHT22;53791;50.696;4.396;2022-11-20T10:28:04;8.80;99.90
23100;DHT22;53791;50.696;4.396;2022-11-20T10:30:29;8.80;99.90
23100;DHT22;53791;50.696;4.396;2022-11-20T10:38:50;8.80;99.90
23100;DHT22;53791;50.696;4.396;2022-11-20T10:41:24;8.80;99.90
23100;DHT22;53791;50.696;4.396;2022-11-20T10:44:09;8.70;99.90
23100;DHT22;53791;50.696;4.396;2022-11-20T10:46:50;8.70;99.90
23100;DHT22;53791;50.696;4.396;2022-11-20T10:49:11;8.70;99.90
23100;DHT22;53791;50.696;4.396;2022-11-20T10:51:48;8.70;99.90
23100;DHT22;53791;50.696;4.396;2022-11-20T11:00:10;8.80;99.90
23100;DHT22;53791;50.696;4.396;2022-11-20T11:02:41;8.90;99.90
23100;DHT22;53791;50.696;4.396;2022-11-20T11:05:37;8.90;99.90
23100;DHT22;53791;50.696;4.396;2022-11-20T11:08:03;8.80;99.90
23100;DHT22;53791;50.696;4.396;2022-11-20T11:10:44;8.90;99.90
23100;DHT22;53791;50.696;4.396;2022-11-20T11:13:21;8.90;99.90
23100;DHT22;53791;50.696;4.396;2022-11-20T11:15:52;8.90;99.90
23100;DHT22;53791;50.696;4.396;2022-11-20T11:21:01;8.90;99.90
23100;DHT22;53791;50.696;4.396;2022-11-20T11:23:36;8.90;99.90
23100;DHT22;53791;50.696;4.396;2022-11-20T11:26:07;8.80;99.90
23100;DHT22;53791;50.696;4.396;2022-11-20T11:28:34;8.80;99.90
23100;DHT22;53791;50.696;4.396;2022-11-20T11:31:02;8.80;99.90
23100;DHT22;53791;50.696;4.396;2022-11-20T11:33:33;8.80;99.90
23100;DHT22;53791;50.696;4.396;2022-11-20T11:36:03;8.70;99.90
23100;DHT22;53791;50.696;4.396;2022-11-20T11:38:40;8.60;99.90
23100;DHT22;53791;50.696;4.396;2022-11-20T11:41:20;8.50;99.90
23100;DHT22;53791;50.696;4.396;2022-11-20T11:43:55;8.50;99.90
23100;DHT22;53791;50.696;4.396;2022-11-20T11:46:49;8.50;99.90
23100;DHT22;53791;50.696;4.396;2022-11-20T11:49:18;8.50;99.90
23100;DHT22;53791;50.696;4.396;2022-11-20T11:52:03;8.40;99.90
23100;DHT22;53791;50.696;4.396;2022-11-20T11:57:29;8.40;99.90
23100;DHT22;53791;50.696;4.396;2022-11-20T12:00:00;8.40;99.90
23100;DHT22;53791;50.696;4.396;2022-11-20T12:03:03;8.40;99.90
23100;DHT22;53791;50.696;4.396;2022-11-20T12:05:36;8.30;99.90
23100;DHT22;53791;50.696;4.396;2022-11-20T12:08:31;8.30;99.90
23100;DHT22;53791;50.696;4.396;2022-11-20T12:11:18;8.40;99.90
23100;DHT22;53791;50.696;4.396;2022-11-20T12:14:01;8.40;99.90
23100;DHT22;53791;50.696;4.396;2022-11-20T12:16:33;8.40;99.90
23100;DHT22;53791;50.696;4.396;2022-11-20T12:19:12;8.40;99.90
23100;DHT22;53791;50.696;4.396;2022-11-20T12:24:52;8.40;99.90
23100;DHT22;53791;50.696;4.396;2022-11-20T12:27:45;8.30;99.90
23100;DHT22;53791;50.696;4.396;2022-11-20T12:30:20;8.30;99.90
23100;DHT22;53791;50.696;4.396;2022-11-20T12:41:48;8.30;99.90
23100;DHT22;53791;50.696;4.396;2022-11-20T12:48:09;8.40;99.90
23100;DHT22;53791;50.696;4.396;2022-11-20T12:53:53;8.40;99.90
23100;DHT22;53791;50.696;4.396;2022-11-20T13:02:26;8.20;99.90
23100;DHT22;53791;50.696;4.396;2022-11-20T13:07:57;8.20;99.90
23100;DHT22;53791;50.696;4.396;2022-11-20T13:11:07;8.20;99.90
23100;DHT22;53791;50.696;4.396;2022-11-20T13:17:09;8.10;99.90
23100;DHT22;53791;50.696;4.396;2022-11-20T13:19:54;8.20;99.90
23100;DHT22;53791;50.696;4.396;2022-11-20T13:22:29;8.30;99.90
23100;DHT22;53791;50.696;4.396;2022-11-20T13:25:01;8.20;99.90
23100;DHT22;53791;50.696;4.396;2022-11-20T13:27:30;8.30;99.90
23100;DHT22;53791;50.696;4.396;2022-11-20T13:30:13;8.20;99.90
23100;DHT22;53791;50.696;4.396;2022-11-20T13:33:09;8.20;99.90
23100;DHT22;53791;50.696;4.396;2022-11-20T13:35:42;8.20;99.90
23100;DHT22;53791;50.696;4.396;2022-11-20T13:38:13;8.10;99.90
23100;DHT22;53791;50.696;4.396;2022-11-20T13:41:07;8.20;99.90
23100;DHT22;53791;50.696;4.396;2022-11-20T13:43:42;8.10;99.90
23100;DHT22;53791;50.696;4.396;2022-11-20T13:46:13;8.10;99.90
23100;DHT22;53791;50.696;4.396;2022-11-20T13:48:47;8.10;99.90
23100;DHT22;53791;50.696;4.396;2022-11-20T13:51:29;8.00;99.90
23100;DHT22;53791;50.696;4.396;2022-11-20T14:02:39;8.30;99.90
23100;DHT22;53791;50.696;4.396;2022-11-20T14:05:23;8.30;99.90
23100;DHT22;53791;50.696;4.396;2022-11-20T14:07:59;8.30;99.90
23100;DHT22;53791;50.696;4.396;2022-11-20T14:13:20;8.30;99.90
23100;DHT22;53791;50.696;4.396;2022-11-20T14:16:09;8.30;99.90
23100;DHT22;53791;50.696;4.396;2022-11-20T14:18:48;8.30;99.90
23100;DHT22;53791;50.696;4.396;2022-11-20T14:21:36;8.30;99.90
23100;DHT22;53791;50.696;4.396;2022-11-20T14:24:11;8.20;99.90
23100;DHT22;53791;50.696;4.396;2022-11-20T14:27:01;8.20;99.90
23100;DHT22;53791;50.696;4.396;2022-11-20T14:29:47;8.10;99.90
23100;DHT22;53791;50.696;4.396;2022-11-20T14:32:25;8.20;99.90
23100;DHT22;53791;50.696;4.396;2022-11-20T14:42:58;8.20;99.90
23100;DHT22;53791;50.696;4.396;2022-11-20T14:48:02;8.40;99.90
23100;DHT22;53791;50.696;4.396;2022-11-20T14:50:34;8.40;99.90
23100;DHT22;53791;50.696;4.396;2022-11-20T14:53:27;8.40;99.90
23100;DHT22;53791;50.696;4.396;2022-11-20T14:56:02;8.50;99.90
23100;DHT22;53791;50.696;4.396;2022-11-20T14:58:35;8.50;99.90
23100;DHT22;53791;50.696;4.396;2022-11-20T15:01:06;8.50;99.90
23100;DHT22;53791;50.696;4.396;2022-11-20T15:03:40;8.60;99.90
23100;DHT22;53791;50.696;4.396;2022-11-20T15:06:10;8.40;99.90
23100;DHT22;53791;50.696;4.396;2022-11-20T15:08:50;8.30;99.90
23100;DHT22;53791;50.696;4.396;2022-11-20T15:13:52;8.30;99.90
23100;DHT22;53791;50.696;4.396;2022-11-20T15:16:27;8.30;99.90
23100;DHT22;53791;50.696;4.396;2022-11-20T15:18:54;8.40;99.90
23100;DHT22;53791;50.696;4.396;2022-11-20T15:21:24;8.40;99.90
23100;DHT22;53791;50.696;4.396;2022-11-20T15:23:51;8.40;99.90
23100;DHT22;53791;50.696;4.396;2022-11-20T15:26:25;8.40;99.90
23100;DHT22;53791;50.696;4.396;2022-11-20T15:28:53;8.50;99.90
23100;DHT22;53791;50.696;4.396;2022-11-20T15:31:25;8.60;99.90
23100;DHT22;53791;50.696;4.396;2022-11-20T15:33:53;8.60;99.90
23100;DHT22;53791;50.696;4.396;2022-11-20T15:36:20;8.50;99.90
23100;DHT22;53791;50.696;4.396;2022-11-20T15:38:51;8.40;99.90
23100;DHT22;53791;50.696;4.396;2022-11-20T15:41:22;8.40;99.90
23100;DHT22;53791;50.696;4.396;2022-11-20T15:43:53;8.40;99.90
23100;DHT22;53791;50.696;4.396;2022-11-20T15:46:23;8.60;99.90
23100;DHT22;53791;50.696;4.396;2022-11-20T15:48:54;8.50;99.90
23100;DHT22;53791;50.696;4.396;2022-11-20T15:51:29;8.60;99.90
23100;DHT22;53791;50.696;4.396;2022-11-20T15:53:58;8.60;99.90
23100;DHT22;53791;50.696;4.396;2022-11-20T15:56:26;8.60;99.90
23100;DHT22;53791;50.696;4.396;2022-11-20T15:58:54;8.70;99.90
23100;DHT22;53791;50.696;4.396;2022-11-20T16:01:22;8.70;99.90
23100;DHT22;53791;50.696;4.396;2022-11-20T16:03:55;8.60;99.90
23100;DHT22;53791;50.696;4.396;2022-11-20T16:06:23;8.70;99.90
23100;DHT22;53791;50.696;4.396;2022-11-20T16:11:44;8.70;99.90
23100;DHT22;53791;50.696;4.396;2022-11-20T16:20:42;8.70;99.90
23100;DHT22;53791;50.696;4.396;2022-11-20T16:23:15;8.70;99.90
23100;DHT22;53791;50.696;4.396;2022-11-20T16:28:22;8.60;99.90
23100;DHT22;53791;50.696;4.396;2022-11-20T16:30:52;8.70;99.90
23100;DHT22;53791;50.696;4.396;2022-11-20T16:33:32;8.70;99.90
23100;DHT22;53791;50.696;4.396;2022-11-20T16:36:11;8.70;99.90
23100;DHT22;53791;50.696;4.396;2022-11-20T16:38:39;8.80;99.90
23100;DHT22;53791;50.696;4.396;2022-11-20T16:41:15;8.70;99.90
23100;DHT22;53791;50.696;4.396;2022-11-20T16:43:54;8.60;99.90
23100;DHT22;53791;50.696;4.396;2022-11-20T16:46:41;8.60;99.90
23100;DHT22;53791;50.696;4.396;2022-11-20T16:49:28;8.70;99.90
23100;DHT22;53791;50.696;4.396;2022-11-20T16:52:05;8.70;99.90
23100;DHT22;53791;50.696;4.396;2022-11-20T16:54:38;8.60;99.90
23100;DHT22;53791;50.696;4.396;2022-11-20T16:57:31;8.50;99.90
23100;DHT22;53791;50.696;4.396;2022-11-20T17:00:08;8.50;99.90
23100;DHT22;53791;50.696;4.396;2022-11-20T17:02:42;8.50;99.90
23100;DHT22;53791;50.696;4.396;2022-11-20T17:05:19;8.40;99.90
23100;DHT22;53791;50.696;4.396;2022-11-20T17:07:43;8.50;99.90
23100;DHT22;53791;50.696;4.396;2022-11-20T17:10:15;8.50;99.90
23100;DHT22;53791;50.696;4.396;2022-11-20T17:15:39;8.50;99.90
23100;DHT22;53791;50.696;4.396;2022-11-20T17:18:07;8.50;99.90
23100;DHT22;53791;50.696;4.396;2022-11-20T17:26:19;8.40;99.90
23100;DHT22;53791;50.696;4.396;2022-11-20T17:31:50;8.30;99.90
23100;DHT22;53791;50.696;4.396;2022-11-20T17:34:24;8.30;99.90
23100;DHT22;53791;50.696;4.396;2022-11-20T17:36:56;8.30;99.90
23100;DHT22;53791;50.696;4.396;2022-11-20T17:39:24;8.30;99.90
23100;DHT22;53791;50.696;4.396;2022-11-20T17:41:59;8.30;99.90
23100;DHT22;53791;50.696;4.396;2022-11-20T17:44:51;8.30;99.90
23100;DHT22;53791;50.696;4.396;2022-11-20T17:47:24;8.20;99.90
23100;DHT22;53791;50.696;4.396;2022-11-20T17:49:57;8.30;99.90
23100;DHT22;53791;50.696;4.396;2022-11-20T17:52:23;8.20;99.90
23100;DHT22;53791;50.696;4.396;2022-11-20T17:54:55;8.10;99.90
23100;DHT22;53791;50.696;4.396;2022-11-20T17:57:35;8.10;99.90
23100;DHT22;53791;50.696;4.396;2022-11-20T18:00:19;8.20;99.90
23100;DHT22;53791;50.696;4.396;2022-11-20T18:02:50;8.30;99.90
23100;DHT22;53791;50.696;4.396;2022-11-20T18:07:52;8.30;99.90
23100;DHT22;53791;50.696;4.396;2022-11-20T18:10:22;8.30;99.90
23100;DHT22;53791;50.696;4.396;2022-11-20T18:12:53;8.30;99.90
23100;DHT22;53791;50.696;4.396;2022-11-20T18:21:19;8.30;99.90
23100;DHT22;53791;50.696;4.396;2022-11-20T18:23:53;8.40;99.90